sensor_id;sensor_type;location;lat;lon;timestamp;temperature;humidity
56240;DHT22;42154;51.992;5.896;2022-07-23T00:00:48;16.40;98.20
56240;DHT22;42154;51.992;5.896;2022-07-23T00:03:14;16.30;98.30
56240;DHT22;42154;51.992;5.896;2022-07-23T00:05:40;16.20;98.30
56240;DHT22;42154;51.992;5.896;2022-07-23T00:08:06;16.20;98.30
56240;DHT22;42154;51.992;5.896;2022-07-23T00:10:32;16.20;98.30
56240;DHT22;42154;51.992;5.896;2022-07-23T00:12:58;16.20;98.40
56240;DHT22;42154;51.992;5.896;2022-07-23T00:15:23;16.10;98.40
56240;DHT22;42154;51.992;5.896;2022-07-23T00:17:49;16.10;98.60
56240;DHT22;42154;51.992;5.896;2022-07-23T00:20:14;16.10;98.60
56240;DHT22;42154;51.992;5.896;2022-07-23T00:22:50;16.00;98.60
56240;DHT22;42154;51.992;5.896;2022-07-23T00:25:16;16.00;98.80
56240;DHT22;42154;51.992;5.896;2022-07-23T00:27:41;15.90;98.80
56240;DHT22;42154;51.992;5.896;2022-07-23T00:30:07;15.90;98.80
56240;DHT22;42154;51.992;5.896;2022-07-23T00:32:44;15.80;98.90
56240;DHT22;42154;51.992;5.896;2022-07-23T00:35:10;15.80;99.00
56240;DHT22;42154;51.992;5.896;2022-07-23T00:37:35;15.80;99.00
56240;DHT22;42154;51.992;5.896;2022-07-23T00:40:01;15.70;99.00
56240;DHT22;42154;51.992;5.896;2022-07-23T00:42:27;15.70;99.00
56240;DHT22;42154;51.992;5.896;2022-07-23T00:44:52;15.70;99.10
56240;DHT22;42154;51.992;5.896;2022-07-23T00:47:18;15.60;99.20
56240;DHT22;42154;51.992;5.896;2022-07-23T00:49:43;15.60;99.30
56240;DHT22;42154;51.992;5.896;2022-07-23T00:52:09;15.50;99.30
56240;DHT22;42154;51.992;5.896;2022-07-23T00:54:34;15.50;99.30
56240;DHT22;42154;51.992;5.896;2022-07-23T00:57:00;15.50;99.40
56240;DHT22;42154;51.992;5.896;2022-07-23T00:59:26;15.50;99.30
56240;DHT22;42154;51.992;5.896;2022-07-23T01:01:52;15.50;99.30
56240;DHT22;42154;51.992;5.896;2022-07-23T01:04:17;15.50;99.30
56240;DHT22;42154;51.992;5.896;2022-07-23T01:06:45;15.40;99.30
56240;DHT22;42154;51.992;5.896;2022-07-23T01:09:10;15.40;99.40
56240;DHT22;42154;51.992;5.896;2022-07-23T01:11:36;15.40;99.40
56240;DHT22;42154;51.992;5.896;2022-07-23T01:14:12;15.40;99.60
56240;DHT22;42154;51.992;5.896;2022-07-23T01:16:39;15.30;99.60
56240;DHT22;42154;51.992;5.896;2022-07-23T01:19:04;15.30;99.60
56240;DHT22;42154;51.992;5.896;2022-07-23T01:21:36;15.30;99.70
56240;DHT22;42154;51.992;5.896;2022-07-23T01:24:02;15.30;99.70
56240;DHT22;42154;51.992;5.896;2022-07-23T01:26:28;15.30;99.70
56240;DHT22;42154;51.992;5.896;2022-07-23T01:28:53;15.20;99.70
56240;DHT22;42154;51.992;5.896;2022-07-23T01:31:19;15.20;99.70
56240;DHT22;42154;51.992;5.896;2022-07-23T01:33:45;15.20;99.80
56240;DHT22;42154;51.992;5.896;2022-07-23T01:36:11;15.20;99.80
56240;DHT22;42154;51.992;5.896;2022-07-23T01:38:36;15.20;99.80
56240;DHT22;42154;51.992;5.896;2022-07-23T01:41:02;15.10;99.90
56240;DHT22;42154;51.992;5.896;2022-07-23T01:43:30;15.10;99.80
56240;DHT22;42154;51.992;5.896;2022-07-23T01:45:56;15.10;99.80
56240;DHT22;42154;51.992;5.896;2022-07-23T01:48:24;15.10;99.80
56240;DHT22;42154;51.992;5.896;2022-07-23T01:51:19;15.10;99.90
56240;DHT22;42154;51.992;5.896;2022-07-23T01:53:53;15.00;99.90
56240;DHT22;42154;51.992;5.896;2022-07-23T01:56:19;15.00;99.90
56240;DHT22;42154;51.992;5.896;2022-07-23T01:58:47;15.00;99.90
56240;DHT22;42154;51.992;5.896;2022-07-23T02:01:12;15.00;99.90
56240;DHT22;42154;51.992;5.896;2022-07-23T02:03:38;15.00;99.90
56240;DHT22;42154;51.992;5.896;2022-07-23T02:06:04;15.00;99.90
56240;DHT22;42154;51.992;5.896;2022-07-23T02:08:30;14.90;99.90
56240;DHT22;42154;51.992;5.896;2022-07-23T02:10:55;14.90;99.90
56240;DHT22;42154;51.992;5.896;2022-07-23T02:13:21;14.90;99.90
56240;DHT22;42154;51.992;5.896;2022-07-23T02:15:47;14.90;99.90
56240;DHT22;42154;51.992;5.896;2022-07-23T02:18:13;14.90;99.90
56240;DHT22;42154;51.992;5.896;2022-07-23T02:20:38;14.90;99.90
56240;DHT22;42154;51.992;5.896;2022-07-23T02:23:07;14.80;99.90
56240;DHT22;42154;51.992;5.896;2022-07-23T02:25:33;14.80;99.90
56240;DHT22;42154;51.992;5.896;2022-07-23T02:28:00;14.80;99.90
56240;DHT22;42154;51.992;5.896;2022-07-23T02:30:26;14.80;99.90
56240;DHT22;42154;51.992;5.896;2022-07-23T02:32:52;14.70;99.90
56240;DHT22;42154;51.992;5.896;2022-07-23T02:35:18;14.70;99.90
56240;DHT22;42154;51.992;5.896;2022-07-23T02:37:43;14.70;99.90
56240;DHT22;42154;51.992;5.896;2022-07-23T02:40:09;14.70;99.90
56240;DHT22;42154;51.992;5.896;2022-07-23T02:42:38;14.70;99.90
56240;DHT22;42154;51.992;5.896;2022-07-23T02:45:04;14.60;99.90
56240;DHT22;42154;51.992;5.896;2022-07-23T02:47:30;14.60;99.90
56240;DHT22;42154;51.992;5.896;2022-07-23T02:49:58;14.60;99.90
56240;DHT22;42154;51.992;5.896;2022-07-23T02:52:24;14.60;99.90
56240;DHT22;42154;51.992;5.896;2022-07-23T02:54:50;14.60;99.90
56240;DHT22;42154;51.992;5.896;2022-07-23T02:57:16;14.60;99.90
56240;DHT22;42154;51.992;5.896;2022-07-23T02:59:41;14.60;99.90
56240;DHT22;42154;51.992;5.896;2022-07-23T03:02:07;14.60;99.90
56240;DHT22;42154;51.992;5.896;2022-07-23T03:04:33;14.50;99.90
56240;DHT22;42154;51.992;5.896;2022-07-23T03:06:58;14.50;99.90
56240;DHT22;42154;51.992;5.896;2022-07-23T03:09:24;14.50;99.90
56240;DHT22;42154;51.992;5.896;2022-07-23T03:11:51;14.50;99.90
56240;DHT22;42154;51.992;5.896;2022-07-23T03:14:18;14.50;99.90
56240;DHT22;42154;51.992;5.896;2022-07-23T03:16:44;14.40;99.90
56240;DHT22;42154;51.992;5.896;2022-07-23T03:19:10;14.40;99.90
56240;DHT22;42154;51.992;5.896;2022-07-23T03:21:35;14.40;99.90
56240;DHT22;42154;51.992;5.896;2022-07-23T03:24:06;14.40;99.90
56240;DHT22;42154;51.992;5.896;2022-07-23T03:26:32;14.40;99.90
56240;DHT22;42154;51.992;5.896;2022-07-23T03:28:58;14.40;99.90
56240;DHT22;42154;51.992;5.896;2022-07-23T03:31:23;14.30;99.90
56240;DHT22;42154;51.992;5.896;2022-07-23T03:33:49;14.40;99.90
56240;DHT22;42154;51.992;5.896;2022-07-23T03:36:15;14.30;99.90
56240;DHT22;42154;51.992;5.896;2022-07-23T03:38:43;14.30;99.90
56240;DHT22;42154;51.992;5.896;2022-07-23T03:41:09;14.30;99.90
56240;DHT22;42154;51.992;5.896;2022-07-23T03:43:35;14.30;99.90
56240;DHT22;42154;51.992;5.896;2022-07-23T03:46:00;14.20;99.90
56240;DHT22;42154;51.992;5.896;2022-07-23T03:48:26;14.20;99.90
56240;DHT22;42154;51.992;5.896;2022-07-23T03:50:51;14.20;99.90
56240;DHT22;42154;51.992;5.896;2022-07-23T03:53:17;14.20;99.90
56240;DHT22;42154;51.992;5.896;2022-07-23T03:55:43;14.20;99.90
56240;DHT22;42154;51.992;5.896;2022-07-23T03:58:08;14.20;99.90
56240;DHT22;42154;51.992;5.896;2022-07-23T04:00:34;14.20;99.90
56240;DHT22;42154;51.992;5.896;2022-07-23T04:03:00;14.20;99.90
56240;DHT22;42154;51.992;5.896;2022-07-23T04:05:26;14.20;99.90
56240;DHT22;42154;51.992;5.896;2022-07-23T04:08:01;14.20;99.90
56240;DHT22;42154;51.992;5.896;2022-07-23T04:10:26;14.30;99.90
56240;DHT22;42154;51.992;5.896;2022-07-23T04:12:52;14.30;99.90
56240;DHT22;42154;51.992;5.896;2022-07-23T04:15:18;14.50;99.90
56240;DHT22;42154;51.992;5.896;2022-07-23T04:17:43;15.00;99.90
56240;DHT22;42154;51.992;5.896;2022-07-23T04:20:10;15.60;99.90
56240;DHT22;42154;51.992;5.896;2022-07-23T04:22:47;16.20;99.40
56240;DHT22;42154;51.992;5.896;2022-07-23T04:25:13;16.70;98.60
56240;DHT22;42154;51.992;5.896;2022-07-23T04:27:42;17.20;97.90
56240;DHT22;42154;51.992;5.896;2022-07-23T04:30:08;17.60;97.30
56240;DHT22;42154;51.992;5.896;2022-07-23T04:32:34;18.00;96.40
56240;DHT22;42154;51.992;5.896;2022-07-23T04:35:09;18.60;95.30
56240;DHT22;42154;51.992;5.896;2022-07-23T04:37:35;19.10;94.20
56240;DHT22;42154;51.992;5.896;2022-07-23T04:40:00;19.50;93.50
56240;DHT22;42154;51.992;5.896;2022-07-23T04:42:26;19.80;93.00
56240;DHT22;42154;51.992;5.896;2022-07-23T04:44:52;20.10;92.40
56240;DHT22;42154;51.992;5.896;2022-07-23T04:47:17;20.40;92.00
56240;DHT22;42154;51.992;5.896;2022-07-23T04:49:44;20.70;91.30
56240;DHT22;42154;51.992;5.896;2022-07-23T04:52:10;21.00;90.80
56240;DHT22;42154;51.992;5.896;2022-07-23T04:54:37;21.30;90.30
56240;DHT22;42154;51.992;5.896;2022-07-23T04:57:02;21.60;89.20
56240;DHT22;42154;51.992;5.896;2022-07-23T04:59:28;21.80;87.80
56240;DHT22;42154;51.992;5.896;2022-07-23T05:01:59;21.90;86.80
56240;DHT22;42154;51.992;5.896;2022-07-23T05:04:25;21.60;86.80
56240;DHT22;42154;51.992;5.896;2022-07-23T05:06:50;20.90;89.20
56240;DHT22;42154;51.992;5.896;2022-07-23T05:09:16;20.00;90.80
56240;DHT22;42154;51.992;5.896;2022-07-23T05:11:42;19.30;91.90
56240;DHT22;42154;51.992;5.896;2022-07-23T05:14:08;18.80;92.90
56240;DHT22;42154;51.992;5.896;2022-07-23T05:16:33;18.50;93.60
56240;DHT22;42154;51.992;5.896;2022-07-23T05:19:04;18.20;94.10
56240;DHT22;42154;51.992;5.896;2022-07-23T05:21:33;18.00;94.50
56240;DHT22;42154;51.992;5.896;2022-07-23T05:23:59;17.70;94.80
56240;DHT22;42154;51.992;5.896;2022-07-23T05:26:25;17.60;95.20
56240;DHT22;42154;51.992;5.896;2022-07-23T05:28:51;17.50;95.50
56240;DHT22;42154;51.992;5.896;2022-07-23T05:31:18;17.50;95.80
56240;DHT22;42154;51.992;5.896;2022-07-23T05:33:45;17.40;95.80
56240;DHT22;42154;51.992;5.896;2022-07-23T05:36:11;17.40;95.80
56240;DHT22;42154;51.992;5.896;2022-07-23T05:38:47;17.30;95.80
56240;DHT22;42154;51.992;5.896;2022-07-23T05:41:12;17.30;95.90
56240;DHT22;42154;51.992;5.896;2022-07-23T05:43:38;17.30;96.00
56240;DHT22;42154;51.992;5.896;2022-07-23T05:46:09;17.30;96.00
56240;DHT22;42154;51.992;5.896;2022-07-23T05:48:36;17.30;96.10
56240;DHT22;42154;51.992;5.896;2022-07-23T05:51:08;17.30;96.20
56240;DHT22;42154;51.992;5.896;2022-07-23T05:53:34;17.30;96.30
56240;DHT22;42154;51.992;5.896;2022-07-23T05:56:03;17.40;96.30
56240;DHT22;42154;51.992;5.896;2022-07-23T05:58:30;17.40;96.30
56240;DHT22;42154;51.992;5.896;2022-07-23T06:00:56;17.40;96.30
56240;DHT22;42154;51.992;5.896;2022-07-23T06:03:22;17.40;96.20
56240;DHT22;42154;51.992;5.896;2022-07-23T06:05:47;17.50;96.20
56240;DHT22;42154;51.992;5.896;2022-07-23T06:08:13;17.50;96.20
56240;DHT22;42154;51.992;5.896;2022-07-23T06:10:38;17.60;96.10
56240;DHT22;42154;51.992;5.896;2022-07-23T06:13:04;17.70;96.10
56240;DHT22;42154;51.992;5.896;2022-07-23T06:15:30;17.80;95.90
56240;DHT22;42154;51.992;5.896;2022-07-23T06:17:57;17.80;95.80
56240;DHT22;42154;51.992;5.896;2022-07-23T06:20:22;17.90;95.80
56240;DHT22;42154;51.992;5.896;2022-07-23T06:22:48;18.00;95.70
56240;DHT22;42154;51.992;5.896;2022-07-23T06:25:14;18.10;95.50
56240;DHT22;42154;51.992;5.896;2022-07-23T06:27:41;18.10;95.20
56240;DHT22;42154;51.992;5.896;2022-07-23T06:30:07;18.20;95.20
56240;DHT22;42154;51.992;5.896;2022-07-23T06:32:33;18.20;95.10
56240;DHT22;42154;51.992;5.896;2022-07-23T06:34:59;18.30;95.00
56240;DHT22;42154;51.992;5.896;2022-07-23T06:37:24;18.30;94.80
56240;DHT22;42154;51.992;5.896;2022-07-23T06:39:50;18.30;94.80
56240;DHT22;42154;51.992;5.896;2022-07-23T06:42:16;18.40;94.50
56240;DHT22;42154;51.992;5.896;2022-07-23T06:44:43;18.40;94.50
56240;DHT22;42154;51.992;5.896;2022-07-23T06:47:10;18.40;94.50
56240;DHT22;42154;51.992;5.896;2022-07-23T06:49:35;18.50;94.50
56240;DHT22;42154;51.992;5.896;2022-07-23T06:52:01;18.60;94.40
56240;DHT22;42154;51.992;5.896;2022-07-23T06:54:27;18.60;94.10
56240;DHT22;42154;51.992;5.896;2022-07-23T06:56:53;18.70;94.00
56240;DHT22;42154;51.992;5.896;2022-07-23T06:59:18;18.70;93.80
56240;DHT22;42154;51.992;5.896;2022-07-23T07:01:44;18.80;93.80
56240;DHT22;42154;51.992;5.896;2022-07-23T07:04:10;18.70;93.50
56240;DHT22;42154;51.992;5.896;2022-07-23T07:06:35;18.70;93.70
56240;DHT22;42154;51.992;5.896;2022-07-23T07:09:01;18.70;93.80
56240;DHT22;42154;51.992;5.896;2022-07-23T07:11:27;18.80;93.90
56240;DHT22;42154;51.992;5.896;2022-07-23T07:13:52;18.90;93.70
56240;DHT22;42154;51.992;5.896;2022-07-23T07:16:18;18.90;93.70
56240;DHT22;42154;51.992;5.896;2022-07-23T07:18:44;19.00;93.70
56240;DHT22;42154;51.992;5.896;2022-07-23T07:21:09;19.10;93.60
56240;DHT22;42154;51.992;5.896;2022-07-23T07:23:35;19.20;93.50
56240;DHT22;42154;51.992;5.896;2022-07-23T07:26:01;19.30;93.20
56240;DHT22;42154;51.992;5.896;2022-07-23T07:28:26;19.30;93.00
56240;DHT22;42154;51.992;5.896;2022-07-23T07:30:52;19.30;92.90
56240;DHT22;42154;51.992;5.896;2022-07-23T07:33:18;19.40;92.80
56240;DHT22;42154;51.992;5.896;2022-07-23T07:35:43;19.40;92.60
56240;DHT22;42154;51.992;5.896;2022-07-23T07:38:09;19.40;92.60
56240;DHT22;42154;51.992;5.896;2022-07-23T07:40:35;19.50;92.40
56240;DHT22;42154;51.992;5.896;2022-07-23T07:43:00;19.50;92.10
56240;DHT22;42154;51.992;5.896;2022-07-23T07:45:27;19.50;92.00
56240;DHT22;42154;51.992;5.896;2022-07-23T07:47:52;19.60;92.10
56240;DHT22;42154;51.992;5.896;2022-07-23T07:50:19;19.60;91.80
56240;DHT22;42154;51.992;5.896;2022-07-23T07:52:44;19.70;91.80
56240;DHT22;42154;51.992;5.896;2022-07-23T07:55:10;19.70;91.90
56240;DHT22;42154;51.992;5.896;2022-07-23T07:57:36;19.70;91.80
56240;DHT22;42154;51.992;5.896;2022-07-23T08:00:02;19.70;91.80
56240;DHT22;42154;51.992;5.896;2022-07-23T08:02:41;19.80;91.80
56240;DHT22;42154;51.992;5.896;2022-07-23T08:05:07;19.90;91.80
56240;DHT22;42154;51.992;5.896;2022-07-23T08:07:32;20.00;91.70
56240;DHT22;42154;51.992;5.896;2022-07-23T08:09:58;20.00;91.50
56240;DHT22;42154;51.992;5.896;2022-07-23T08:12:24;20.10;91.60
56240;DHT22;42154;51.992;5.896;2022-07-23T08:14:49;20.20;91.30
56240;DHT22;42154;51.992;5.896;2022-07-23T08:17:15;20.20;91.30
56240;DHT22;42154;51.992;5.896;2022-07-23T08:19:40;20.20;91.00
56240;DHT22;42154;51.992;5.896;2022-07-23T08:22:06;20.20;90.60
56240;DHT22;42154;51.992;5.896;2022-07-23T08:24:32;20.20;90.80
56240;DHT22;42154;51.992;5.896;2022-07-23T08:26:57;20.20;90.60
56240;DHT22;42154;51.992;5.896;2022-07-23T08:29:23;20.20;90.70
56240;DHT22;42154;51.992;5.896;2022-07-23T08:31:48;20.30;90.50
56240;DHT22;42154;51.992;5.896;2022-07-23T08:34:14;20.30;90.60
56240;DHT22;42154;51.992;5.896;2022-07-23T08:36:39;20.30;90.50
56240;DHT22;42154;51.992;5.896;2022-07-23T08:39:05;20.40;90.30
56240;DHT22;42154;51.992;5.896;2022-07-23T08:41:31;20.50;90.50
56240;DHT22;42154;51.992;5.896;2022-07-23T08:43:57;20.50;90.20
56240;DHT22;42154;51.992;5.896;2022-07-23T08:46:26;20.60;90.30
56240;DHT22;42154;51.992;5.896;2022-07-23T08:48:52;20.70;90.10
56240;DHT22;42154;51.992;5.896;2022-07-23T08:51:19;20.70;90.10
56240;DHT22;42154;51.992;5.896;2022-07-23T08:53:45;20.80;90.10
56240;DHT22;42154;51.992;5.896;2022-07-23T08:56:12;21.00;90.00
56240;DHT22;42154;51.992;5.896;2022-07-23T08:58:37;21.00;89.70
56240;DHT22;42154;51.992;5.896;2022-07-23T09:01:03;21.10;89.20
56240;DHT22;42154;51.992;5.896;2022-07-23T09:03:30;21.00;88.10
56240;DHT22;42154;51.992;5.896;2022-07-23T09:05:56;21.00;88.00
56240;DHT22;42154;51.992;5.896;2022-07-23T09:08:27;21.10;88.00
56240;DHT22;42154;51.992;5.896;2022-07-23T09:11:00;21.10;87.60
56240;DHT22;42154;51.992;5.896;2022-07-23T09:13:30;21.10;86.70
56240;DHT22;42154;51.992;5.896;2022-07-23T09:15:57;21.10;87.20
56240;DHT22;42154;51.992;5.896;2022-07-23T09:18:33;21.20;87.20
56240;DHT22;42154;51.992;5.896;2022-07-23T09:21:08;21.20;86.40
56240;DHT22;42154;51.992;5.896;2022-07-23T09:23:53;21.20;86.60
56240;DHT22;42154;51.992;5.896;2022-07-23T09:28:52;21.40;87.00
56240;DHT22;42154;51.992;5.896;2022-07-23T09:31:19;21.50;86.60
56240;DHT22;42154;51.992;5.896;2022-07-23T09:33:44;21.60;85.20
56240;DHT22;42154;51.992;5.896;2022-07-23T09:36:10;21.60;84.70
56240;DHT22;42154;51.992;5.896;2022-07-23T09:38:36;21.60;84.50
56240;DHT22;42154;51.992;5.896;2022-07-23T09:41:12;21.60;83.20
56240;DHT22;42154;51.992;5.896;2022-07-23T09:43:38;21.70;83.60
56240;DHT22;42154;51.992;5.896;2022-07-23T09:46:17;21.70;84.10
56240;DHT22;42154;51.992;5.896;2022-07-23T09:48:43;21.80;84.20
56240;DHT22;42154;51.992;5.896;2022-07-23T09:51:08;21.90;84.40
56240;DHT22;42154;51.992;5.896;2022-07-23T09:53:34;22.00;84.90
56240;DHT22;42154;51.992;5.896;2022-07-23T09:56:00;22.10;84.00
56240;DHT22;42154;51.992;5.896;2022-07-23T09:58:26;22.20;84.10
56240;DHT22;42154;51.992;5.896;2022-07-23T10:00:54;22.20;83.60
56240;DHT22;42154;51.992;5.896;2022-07-23T10:03:21;22.20;82.70
56240;DHT22;42154;51.992;5.896;2022-07-23T10:06:08;22.20;82.50
56240;DHT22;42154;51.992;5.896;2022-07-23T10:08:52;22.20;81.60
56240;DHT22;42154;51.992;5.896;2022-07-23T10:11:40;22.20;82.10
56240;DHT22;42154;51.992;5.896;2022-07-23T10:14:26;22.30;82.50
56240;DHT22;42154;51.992;5.896;2022-07-23T10:16:56;22.50;82.70
56240;DHT22;42154;51.992;5.896;2022-07-23T10:19:21;22.70;82.40
56240;DHT22;42154;51.992;5.896;2022-07-23T10:21:49;22.70;81.70
56240;DHT22;42154;51.992;5.896;2022-07-23T10:26:58;22.80;81.30
56240;DHT22;42154;51.992;5.896;2022-07-23T10:32:28;22.80;80.90
56240;DHT22;42154;51.992;5.896;2022-07-23T10:37:32;22.90;79.10
56240;DHT22;42154;51.992;5.896;2022-07-23T10:42:38;23.00;79.50
56240;DHT22;42154;51.992;5.896;2022-07-23T10:47:49;23.20;79.50
56240;DHT22;42154;51.992;5.896;2022-07-23T10:50:24;23.30;78.50
56240;DHT22;42154;51.992;5.896;2022-07-23T10:57:56;23.50;77.90
56240;DHT22;42154;51.992;5.896;2022-07-23T11:00:23;23.60;76.90
56240;DHT22;42154;51.992;5.896;2022-07-23T11:02:50;23.70;76.30
56240;DHT22;42154;51.992;5.896;2022-07-23T11:05:16;23.80;76.70
56240;DHT22;42154;51.992;5.896;2022-07-23T11:10:39;24.00;76.30
56240;DHT22;42154;51.992;5.896;2022-07-23T11:31:54;23.80;73.80
56240;DHT22;42154;51.992;5.896;2022-07-23T11:34:35;24.00;74.50
56240;DHT22;42154;51.992;5.896;2022-07-23T11:37:02;24.10;73.80
56240;DHT22;42154;51.992;5.896;2022-07-23T11:39:29;24.00;73.30
56240;DHT22;42154;51.992;5.896;2022-07-23T11:41:55;23.90;72.70
56240;DHT22;42154;51.992;5.896;2022-07-23T11:44:27;23.90;73.50
56240;DHT22;42154;51.992;5.896;2022-07-23T11:46:56;24.10;73.90
56240;DHT22;42154;51.992;5.896;2022-07-23T11:49:22;24.30;73.50
56240;DHT22;42154;51.992;5.896;2022-07-23T11:52:01;24.40;73.40
56240;DHT22;42154;51.992;5.896;2022-07-23T11:54:28;24.60;73.20
56240;DHT22;42154;51.992;5.896;2022-07-23T11:56:57;24.50;72.20
56240;DHT22;42154;51.992;5.896;2022-07-23T11:59:24;24.30;71.60
56240;DHT22;42154;51.992;5.896;2022-07-23T12:01:57;24.20;72.30
56240;DHT22;42154;51.992;5.896;2022-07-23T12:04:24;24.20;72.40
56240;DHT22;42154;51.992;5.896;2022-07-23T12:06:49;24.40;72.70
56240;DHT22;42154;51.992;5.896;2022-07-23T12:09:15;24.50;72.90
56240;DHT22;42154;51.992;5.896;2022-07-23T12:11:56;24.60;72.80
56240;DHT22;42154;51.992;5.896;2022-07-23T12:14:21;24.70;73.00
56240;DHT22;42154;51.992;5.896;2022-07-23T12:16:47;24.80;72.60
56240;DHT22;42154;51.992;5.896;2022-07-23T12:19:12;24.90;72.00
56240;DHT22;42154;51.992;5.896;2022-07-23T12:21:39;24.90;72.00
56240;DHT22;42154;51.992;5.896;2022-07-23T12:24:08;24.80;72.00
56240;DHT22;42154;51.992;5.896;2022-07-23T12:26:34;24.70;72.10
56240;DHT22;42154;51.992;5.896;2022-07-23T12:29:00;24.70;72.00
56240;DHT22;42154;51.992;5.896;2022-07-23T12:31:26;24.80;72.00
56240;DHT22;42154;51.992;5.896;2022-07-23T12:33:52;25.00;71.60
56240;DHT22;42154;51.992;5.896;2022-07-23T12:36:17;25.10;70.10
56240;DHT22;42154;51.992;5.896;2022-07-23T12:38:44;25.10;69.90
56240;DHT22;42154;51.992;5.896;2022-07-23T12:41:12;25.10;69.30
56240;DHT22;42154;51.992;5.896;2022-07-23T12:43:38;25.20;70.00
56240;DHT22;42154;51.992;5.896;2022-07-23T12:46:14;25.40;70.50
56240;DHT22;42154;51.992;5.896;2022-07-23T12:51:16;25.90;69.30
56240;DHT22;42154;51.992;5.896;2022-07-23T12:53:43;26.00;68.70
56240;DHT22;42154;51.992;5.896;2022-07-23T12:56:12;25.90;68.00
56240;DHT22;42154;51.992;5.896;2022-07-23T12:58:40;25.70;66.90
56240;DHT22;42154;51.992;5.896;2022-07-23T13:01:06;25.50;68.10
56240;DHT22;42154;51.992;5.896;2022-07-23T13:03:39;25.30;68.90
56240;DHT22;42154;51.992;5.896;2022-07-23T13:06:07;25.20;69.40
56240;DHT22;42154;51.992;5.896;2022-07-23T13:08:33;25.00;69.30
56240;DHT22;42154;51.992;5.896;2022-07-23T13:10:59;24.90;69.80
56240;DHT22;42154;51.992;5.896;2022-07-23T13:13:26;24.80;70.20
56240;DHT22;42154;51.992;5.896;2022-07-23T13:15:52;24.80;70.60
56240;DHT22;42154;51.992;5.896;2022-07-23T13:18:18;24.80;70.20
56240;DHT22;42154;51.992;5.896;2022-07-23T13:20:45;24.80;70.10
56240;DHT22;42154;51.992;5.896;2022-07-23T13:23:11;24.80;69.20
56240;DHT22;42154;51.992;5.896;2022-07-23T13:25:37;24.90;68.90
56240;DHT22;42154;51.992;5.896;2022-07-23T13:28:02;25.20;68.90
56240;DHT22;42154;51.992;5.896;2022-07-23T13:30:28;25.50;67.30
56240;DHT22;42154;51.992;5.896;2022-07-23T13:32:54;25.70;67.50
56240;DHT22;42154;51.992;5.896;2022-07-23T13:35:20;26.00;67.00
56240;DHT22;42154;51.992;5.896;2022-07-23T13:37:46;26.20;66.10
56240;DHT22;42154;51.992;5.896;2022-07-23T13:40:11;26.30;64.80
56240;DHT22;42154;51.992;5.896;2022-07-23T13:42:37;26.30;63.50
56240;DHT22;42154;51.992;5.896;2022-07-23T13:45:03;26.20;64.70
56240;DHT22;42154;51.992;5.896;2022-07-23T13:47:29;26.30;65.30
56240;DHT22;42154;51.992;5.896;2022-07-23T13:49:54;26.20;65.50
56240;DHT22;42154;51.992;5.896;2022-07-23T13:52:20;26.00;65.60
56240;DHT22;42154;51.992;5.896;2022-07-23T13:54:46;25.80;66.40
56240;DHT22;42154;51.992;5.896;2022-07-23T13:57:11;25.60;66.00
56240;DHT22;42154;51.992;5.896;2022-07-23T13:59:37;25.40;67.00
56240;DHT22;42154;51.992;5.896;2022-07-23T14:02:03;25.40;67.60
56240;DHT22;42154;51.992;5.896;2022-07-23T14:04:29;25.40;65.90
56240;DHT22;42154;51.992;5.896;2022-07-23T14:06:54;25.40;66.70
56240;DHT22;42154;51.992;5.896;2022-07-23T14:09:20;25.60;65.90
56240;DHT22;42154;51.992;5.896;2022-07-23T14:11:46;25.70;66.20
56240;DHT22;42154;51.992;5.896;2022-07-23T14:14:12;25.80;66.60
56240;DHT22;42154;51.992;5.896;2022-07-23T14:16:37;26.10;66.30
56240;DHT22;42154;51.992;5.896;2022-07-23T14:19:03;26.20;65.50
56240;DHT22;42154;51.992;5.896;2022-07-23T14:21:29;26.30;64.80
56240;DHT22;42154;51.992;5.896;2022-07-23T14:23:54;26.20;63.70
56240;DHT22;42154;51.992;5.896;2022-07-23T14:26:20;26.20;64.00
56240;DHT22;42154;51.992;5.896;2022-07-23T14:28:45;26.30;64.20
56240;DHT22;42154;51.992;5.896;2022-07-23T14:31:11;26.30;64.40
56240;DHT22;42154;51.992;5.896;2022-07-23T14:33:36;26.20;64.60
56240;DHT22;42154;51.992;5.896;2022-07-23T14:36:02;26.10;65.20
56240;DHT22;42154;51.992;5.896;2022-07-23T14:38:28;26.20;65.50
56240;DHT22;42154;51.992;5.896;2022-07-23T14:40:58;26.20;65.50
56240;DHT22;42154;51.992;5.896;2022-07-23T14:43:24;26.20;65.50
56240;DHT22;42154;51.992;5.896;2022-07-23T14:45:50;26.20;65.30
56240;DHT22;42154;51.992;5.896;2022-07-23T14:48:15;26.20;64.40
56240;DHT22;42154;51.992;5.896;2022-07-23T14:50:41;26.10;64.00
56240;DHT22;42154;51.992;5.896;2022-07-23T14:53:07;26.20;65.10
56240;DHT22;42154;51.992;5.896;2022-07-23T14:55:32;26.40;65.30
56240;DHT22;42154;51.992;5.896;2022-07-23T14:57:58;26.50;64.70
56240;DHT22;42154;51.992;5.896;2022-07-23T15:00:24;26.40;63.50
56240;DHT22;42154;51.992;5.896;2022-07-23T15:02:50;26.40;64.10
56240;DHT22;42154;51.992;5.896;2022-07-23T15:05:15;26.30;64.70
56240;DHT22;42154;51.992;5.896;2022-07-23T15:07:41;26.30;64.60
56240;DHT22;42154;51.992;5.896;2022-07-23T15:10:07;26.20;64.00
56240;DHT22;42154;51.992;5.896;2022-07-23T15:12:33;26.30;64.40
56240;DHT22;42154;51.992;5.896;2022-07-23T15:14:59;26.30;64.30
56240;DHT22;42154;51.992;5.896;2022-07-23T15:17:24;26.40;64.60
56240;DHT22;42154;51.992;5.896;2022-07-23T15:19:50;26.50;64.90
56240;DHT22;42154;51.992;5.896;2022-07-23T15:22:16;26.60;64.70
56240;DHT22;42154;51.992;5.896;2022-07-23T15:24:42;26.60;63.80
56240;DHT22;42154;51.992;5.896;2022-07-23T15:27:07;26.60;64.20
56240;DHT22;42154;51.992;5.896;2022-07-23T15:29:33;26.70;64.50
56240;DHT22;42154;51.992;5.896;2022-07-23T15:31:59;26.70;64.30
56240;DHT22;42154;51.992;5.896;2022-07-23T15:34:25;26.80;64.70
56240;DHT22;42154;51.992;5.896;2022-07-23T15:36:51;26.70;64.20
56240;DHT22;42154;51.992;5.896;2022-07-23T15:39:16;26.70;65.20
56240;DHT22;42154;51.992;5.896;2022-07-23T15:41:42;26.70;64.30
56240;DHT22;42154;51.992;5.896;2022-07-23T15:44:08;26.80;63.40
56240;DHT22;42154;51.992;5.896;2022-07-23T15:46:33;26.60;63.40
56240;DHT22;42154;51.992;5.896;2022-07-23T15:48:59;26.60;64.20
56240;DHT22;42154;51.992;5.896;2022-07-23T15:51:25;26.60;64.40
56240;DHT22;42154;51.992;5.896;2022-07-23T15:53:50;26.70;64.50
56240;DHT22;42154;51.992;5.896;2022-07-23T15:56:16;26.90;64.50
56240;DHT22;42154;51.992;5.896;2022-07-23T15:58:41;27.00;63.60
56240;DHT22;42154;51.992;5.896;2022-07-23T16:01:07;27.10;63.20
56240;DHT22;42154;51.992;5.896;2022-07-23T16:03:36;27.10;63.20
56240;DHT22;42154;51.992;5.896;2022-07-23T16:06:03;27.20;63.50
56240;DHT22;42154;51.992;5.896;2022-07-23T16:08:29;27.40;63.20
56240;DHT22;42154;51.992;5.896;2022-07-23T16:10:54;27.50;62.50
56240;DHT22;42154;51.992;5.896;2022-07-23T16:13:24;27.50;62.40